KDAA

Davison AAF Airport

Fort Belvoir, Virginia, USA
METAR KDAA 100556Z AUTO 35005KT 10SM SCT160 OVC180 00/M08 A3011 RMK AO2 SLP200 T10011081 10009 21001 56020 TSNO $
Observed Flight Rules
Dec-10 @ 05:56 UTC (31 minutes ago) Visual Flight Rules
Wind Visibility Clouds
350° at 5 knots 10 miles
  • Scattered at 16,000' AGL
  • Overcast at 18,000' AGL
Temperatures Readings
Current -0°C / 32°F
Dewpoint -8°C / 18°F
Humidity 55%
Altimeter 30.11" Hg
Pressure 1020 hPa
Elevation 21
METAR KDAA 100556Z AUTO 35005KT 10SM SCT160 OVC180 00/M08 A3011 RMK AO2 SLP200 T10011081 10009 21001 56020 TSNO $
Observed Flight Rules
Dec-10 @ 05:56 UTC
(31 minutes ago)
VFR
Wind Visibility
350° at 5 knots 10 miles
Clouds
  • Scattered at 16,000' AGL
  • Overcast at 18,000' AGL
Temperature Dewpoint
-0°C / 32°F -8°C / 18°F
Humidity Altimeter Pressure
55% 30.11" Hg 1020 hPa